Time;durP1;ratioP1;P1;durP2;ratioP2;P2;SDS_P1;SDS_P2;PMS_P1;PMS_P2;Temp;Humidity;BMP_temperature;BMP_pressure;BME280_temperature;BME280_humidity;BME280_pressure;Samples;Min_cycle;Max_cycle;Signal;HPM_P1;HPM_P2
2023/09/25 00:00:30;;;;;;;3.80;2.20;;;15.10;1.00;;;;;;6218630;23;20681;-41
2023/09/25 00:02:57;;;;;;;3.90;2.33;;;15.00;1.00;;;;;;6218832;23;20460;-42
2023/09/25 00:05:23;;;;;;;3.10;2.73;;;15.00;1.00;;;;;;6218259;23;20436;-42
2023/09/25 00:07:48;;;;;;;3.60;2.57;;;15.00;1.00;;;;;;6192798;23;20691;-43
2023/09/25 00:10:14;;;;;;;2.77;2.37;;;15.00;1.00;;;;;;6218798;23;20421;-42
2023/09/25 00:12:40;;;;;;;4.37;2.37;;;15.00;1.00;;;;;;6219039;23;20526;-42
2023/09/25 00:15:06;;;;;;;2.83;2.30;;;14.90;1.00;;;;;;6219158;23;20541;-43
2023/09/25 00:17:32;;;;;;;3.50;1.90;;;15.00;1.00;;;;;;6219363;23;20154;-42
2023/09/25 00:19:58;;;;;;;2.90;2.00;;;14.90;1.00;;;;;;6218469;23;20388;-43
2023/09/25 00:22:24;;;;;;;3.00;2.40;;;14.90;1.00;;;;;;6218974;23;20388;-42
2023/09/25 00:24:50;;;;;;;3.60;2.43;;;14.90;1.00;;;;;;6219398;23;20399;-42
2023/09/25 00:27:16;;;;;;;3.50;2.73;;;14.90;1.00;;;;;;6218880;23;20809;-42
2023/09/25 00:29:42;;;;;;;3.47;2.60;;;14.80;1.00;;;;;;6218454;23;20848;-42
2023/09/25 00:32:07;;;;;;;3.17;2.27;;;14.80;1.00;;;;;;6218752;23;20150;-42
2023/09/25 00:34:33;;;;;;;5.60;2.33;;;14.80;1.00;;;;;;6218890;23;20150;-43
2023/09/25 00:36:59;;;;;;;4.20;2.30;;;14.80;1.00;;;;;;6218813;23;20150;-43
2023/09/25 00:39:25;;;;;;;4.27;2.60;;;14.80;1.00;;;;;;6218481;23;20138;-42
2023/09/25 00:41:51;;;;;;;4.30;2.87;;;14.80;1.00;;;;;;6217869;23;20357;-42
2023/09/25 00:44:16;;;;;;;3.73;2.53;;;14.80;1.00;;;;;;6218961;23;20154;-43
2023/09/25 00:46:42;;;;;;;3.30;2.63;;;14.80;1.00;;;;;;6218820;23;20158;-43
2023/09/25 00:49:08;;;;;;;3.33;2.43;;;14.80;1.00;;;;;;6218741;23;20172;-43
2023/09/25 00:51:34;;;;;;;4.17;2.37;;;14.80;1.00;;;;;;6192416;23;20408;-43
2023/09/25 00:54:00;;;;;;;2.70;2.40;;;14.70;1.00;;;;;;6219148;23;20131;-43
2023/09/25 00:56:26;;;;;;;3.43;2.60;;;14.70;1.00;;;;;;6218230;23;20416;-43
2023/09/25 00:58:52;;;;;;;3.40;2.37;;;14.70;1.00;;;;;;6192467;23;20385;-43
2023/09/25 01:01:19;;;;;;;4.30;2.70;;;14.70;1.00;;;;;;6217768;23;20539;-43
2023/09/25 01:03:44;;;;;;;3.70;2.53;;;14.70;1.00;;;;;;6217788;23;20409;-42
2023/09/25 01:06:11;;;;;;;3.30;2.40;;;14.60;1.00;;;;;;6218391;23;20882;-43
2023/09/25 01:08:36;;;;;;;2.83;2.30;;;14.60;1.00;;;;;;6218438;23;20229;-43
2023/09/25 01:11:03;;;;;;;3.47;2.43;;;14.60;1.00;;;;;;6219102;23;20425;-43
2023/09/25 01:13:30;;;;;;;3.90;2.10;;;14.50;1.00;;;;;;6218024;23;20217;-42
2023/09/25 01:15:56;;;;;;;3.17;2.50;;;14.50;1.00;;;;;;6218039;23;20381;-43
2023/09/25 01:18:21;;;;;;;2.50;2.10;;;14.50;1.00;;;;;;6218350;23;20354;-43
2023/09/25 01:20:47;;;;;;;3.10;2.17;;;14.50;1.00;;;;;;6218344;23;20537;-42
2023/09/25 01:23:13;;;;;;;2.83;2.27;;;14.50;1.00;;;;;;6218247;23;20203;-43
2023/09/25 01:25:38;;;;;;;3.83;2.40;;;14.40;1.00;;;;;;6216574;23;20257;-42
2023/09/25 01:28:04;;;;;;;3.20;2.40;;;14.40;1.00;;;;;;6215323;23;20236;-42
2023/09/25 01:30:30;;;;;;;3.23;2.17;;;14.40;1.00;;;;;;6216458;23;20173;-42
2023/09/25 01:32:57;;;;;;;4.07;2.30;;;14.40;1.00;;;;;;6216035;23;20791;-43
2023/09/25 01:35:25;;;;;;;2.80;2.50;;;14.50;1.00;;;;;;6216729;23;20700;-42
2023/09/25 01:37:59;;;;;;;2.97;2.20;;;14.50;1.00;;;;;;6216021;23;20381;-43
2023/09/25 01:40:25;;;;;;;2.80;2.43;;;14.50;1.00;;;;;;6216322;23;20384;-42
2023/09/25 01:42:50;;;;;;;2.80;2.20;;;14.50;1.00;;;;;;6218380;23;20423;-42
2023/09/25 01:45:18;;;;;;;4.40;2.53;;;14.40;1.00;;;;;;6218223;23;20146;-43
2023/09/25 01:47:50;;;;;;;4.10;2.47;;;14.40;1.00;;;;;;6218239;23;20149;-42
2023/09/25 01:50:21;;;;;;;4.00;2.73;;;14.30;1.00;;;;;;6216828;23;20420;-42
2023/09/25 01:52:50;;;;;;;2.73;2.40;;;14.30;1.00;;;;;;6215277;23;20490;-42
2023/09/25 01:55:16;;;;;;;4.67;2.37;;;14.30;1.00;;;;;;6215042;23;20626;-42
2023/09/25 01:57:42;;;;;;;3.97;2.57;;;14.20;1.00;;;;;;6216059;23;20368;-42
2023/09/25 02:00:09;;;;;;;3.40;2.20;;;14.20;1.00;;;;;;6215890;23;20145;-42
2023/09/25 02:02:36;;;;;;;2.90;2.33;;;14.20;1.00;;;;;;6217756;23;20717;-42
2023/09/25 02:05:02;;;;;;;3.07;2.50;;;14.20;1.00;;;;;;6216389;23;20432;-43
2023/09/25 02:07:28;;;;;;;3.97;3.13;;;14.20;1.00;;;;;;6217159;23;20397;-43
2023/09/25 02:09:53;;;;;;;3.73;2.57;;;14.20;1.00;;;;;;6217694;23;20708;-43
2023/09/25 02:12:19;;;;;;;3.57;2.23;;;14.10;1.00;;;;;;6218208;23;20131;-43
2023/09/25 02:14:45;;;;;;;2.63;2.13;;;14.10;1.00;;;;;;6217728;23;20178;-42
2023/09/25 02:17:11;;;;;;;4.43;2.40;;;14.10;1.00;;;;;;6216782;23;20883;-42
2023/09/25 02:19:37;;;;;;;4.17;2.40;;;14.00;1.00;;;;;;6216007;23;20161;-42
2023/09/25 02:22:06;;;;;;;3.20;2.37;;;14.00;1.00;;;;;;6216121;23;20150;-42
2023/09/25 02:24:34;;;;;;;2.73;2.43;;;14.00;1.00;;;;;;6216357;23;20345;-42
2023/09/25 02:27:00;;;;;;;3.70;2.70;;;14.00;1.00;;;;;;6215742;23;20653;-42
2023/09/25 02:29:25;;;;;;;3.00;2.57;;;14.00;1.00;;;;;;6216233;23;20409;-43
2023/09/25 02:31:51;;;;;;;3.30;2.40;;;13.90;1.00;;;;;;6216617;23;20523;-44
2023/09/25 02:34:17;;;;;;;4.00;2.50;;;13.90;1.00;;;;;;6217470;23;20150;-42
2023/09/25 02:36:42;;;;;;;3.90;2.83;;;13.90;1.00;;;;;;6217949;23;20158;-42
2023/09/25 02:39:10;;;;;;;3.07;2.33;;;13.80;1.00;;;;;;6217644;23;20185;-43
2023/09/25 02:41:36;;;;;;;2.50;2.07;;;13.80;1.00;;;;;;6217727;23;20154;-43
2023/09/25 02:44:01;;;;;;;3.47;2.70;;;13.80;1.00;;;;;;6190948;23;20400;-42
2023/09/25 02:46:27;;;;;;;3.03;2.20;;;13.80;1.00;;;;;;6218102;23;20389;-42
2023/09/25 02:48:53;;;;;;;3.40;2.50;;;13.70;1.00;;;;;;6217943;23;20154;-42
2023/09/25 02:51:18;;;;;;;3.80;2.47;;;13.70;1.00;;;;;;6216616;23;20201;-42
2023/09/25 02:53:44;;;;;;;2.73;2.30;;;13.70;1.00;;;;;;6216094;23;20146;-43
2023/09/25 02:56:11;;;;;;;3.10;2.57;;;13.70;1.00;;;;;;6216373;23;20150;-42
2023/09/25 02:58:37;;;;;;;3.40;2.33;;;13.60;1.00;;;;;;6215875;23;20533;-43
2023/09/25 03:01:02;;;;;;;4.30;2.63;;;13.60;1.00;;;;;;6215908;23;20417;-42
2023/09/25 03:03:29;;;;;;;3.20;2.60;;;13.60;1.00;;;;;;6215600;23;20145;-43
2023/09/25 03:05:55;;;;;;;3.73;2.40;;;13.60;1.00;;;;;;6216469;23;20153;-45
2023/09/25 03:08:21;;;;;;;3.67;2.10;;;13.60;1.00;;;;;;6166554;23;20405;-43
2023/09/25 03:10:46;;;;;;;3.33;2.40;;;13.60;1.00;;;;;;6217812;23;20427;-43
2023/09/25 03:13:12;;;;;;;2.60;1.83;;;13.50;1.00;;;;;;6217830;23;20149;-43
2023/09/25 03:15:38;;;;;;;3.40;2.50;;;13.50;1.00;;;;;;6217506;23;20422;-42
2023/09/25 03:18:04;;;;;;;4.07;2.33;;;13.50;1.00;;;;;;6217414;23;20130;-42
2023/09/25 03:20:30;;;;;;;4.37;2.97;;;13.50;1.00;;;;;;6218038;23;20154;-42
2023/09/25 03:22:56;;;;;;;3.20;2.37;;;13.40;1.00;;;;;;6217347;23;20450;-43
2023/09/25 03:25:23;;;;;;;3.77;2.43;;;13.40;1.00;;;;;;6217524;23;20393;-43
2023/09/25 03:27:49;;;;;;;3.70;2.50;;;13.30;1.00;;;;;;6217661;23;20237;-43
2023/09/25 03:30:15;;;;;;;3.63;2.60;;;13.30;1.00;;;;;;6216776;23;20409;-43
2023/09/25 03:32:42;;;;;;;3.23;2.57;;;13.30;1.00;;;;;;6217722;23;20471;-43
2023/09/25 03:35:08;;;;;;;3.50;2.50;;;13.30;1.00;;;;;;6217915;23;20387;-43
2023/09/25 03:37:34;;;;;;;3.40;2.50;;;13.30;1.00;;;;;;6216305;23;20443;-43
2023/09/25 03:39:59;;;;;;;4.30;2.80;;;13.30;1.00;;;;;;6213594;23;20393;-43
2023/09/25 03:42:25;;;;;;;5.63;2.47;;;13.20;1.00;;;;;;6215832;23;20169;-43
2023/09/25 03:44:51;;;;;;;2.93;2.40;;;13.20;1.00;;;;;;6216662;23;20153;-43
2023/09/25 03:47:18;;;;;;;2.90;2.47;;;13.20;1.00;;;;;;6217415;23;20150;-43
2023/09/25 03:49:44;;;;;;;2.33;2.00;;;13.20;1.00;;;;;;6216355;23;20392;-43
2023/09/25 03:52:10;;;;;;;3.43;2.50;;;13.20;1.00;;;;;;6213471;23;20377;-41
2023/09/25 03:54:36;;;;;;;4.07;2.80;;;13.20;1.00;;;;;;6210989;23;20443;-43
2023/09/25 03:57:01;;;;;;;2.93;2.63;;;13.20;1.00;;;;;;6213862;23;20197;-43
2023/09/25 03:59:27;;;;;;;4.67;2.70;;;13.20;1.00;;;;;;6213333;23;20356;-43
2023/09/25 04:01:53;;;;;;;3.13;2.57;;;13.10;1.00;;;;;;6212771;23;20164;-43
2023/09/25 04:04:18;;;;;;;3.90;2.33;;;13.10;1.00;;;;;;6213389;23;20516;-43
2023/09/25 04:06:44;;;;;;;3.27;2.70;;;13.10;1.00;;;;;;6213502;23;20155;-43
2023/09/25 04:09:10;;;;;;;3.90;3.30;;;13.10;1.00;;;;;;6213406;23;20134;-42
2023/09/25 04:11:36;;;;;;;4.03;2.90;;;13.10;1.00;;;;;;6214741;23;20185;-43
2023/09/25 04:14:02;;;;;;;2.90;2.27;;;13.10;1.00;;;;;;6213359;23;20176;-42
2023/09/25 04:16:28;;;;;;;3.40;2.67;;;13.00;1.00;;;;;;6214730;23;20154;-42
2023/09/25 04:18:57;;;;;;;2.47;2.17;;;13.00;1.00;;;;;;6215466;23;20700;-43
2023/09/25 04:21:22;;;;;;;3.70;2.47;;;13.00;1.00;;;;;;6214625;23;20169;-43
2023/09/25 04:23:48;;;;;;;4.13;2.90;;;13.00;1.00;;;;;;6216252;23;20368;-43
2023/09/25 04:26:14;;;;;;;3.20;2.50;;;13.00;1.00;;;;;;6215083;23;20173;-43
2023/09/25 04:28:40;;;;;;;2.47;2.17;;;13.00;1.00;;;;;;6213447;23;20867;-42
2023/09/25 04:31:06;;;;;;;3.67;2.57;;;13.00;1.00;;;;;;6212880;23;20188;-42
2023/09/25 04:33:33;;;;;;;3.83;2.83;;;12.90;1.00;;;;;;6212761;23;20408;-42
2023/09/25 04:35:59;;;;;;;3.40;2.50;;;12.90;1.00;;;;;;6213259;23;20453;-42
2023/09/25 04:38:30;;;;;;;4.10;3.17;;;12.90;1.00;;;;;;6212369;23;20462;-42
2023/09/25 04:40:56;;;;;;;3.83;2.63;;;12.90;1.00;;;;;;6214010;23;20423;-43
2023/09/25 04:43:22;;;;;;;4.07;3.10;;;12.90;4.40;;;;;;6212185;23;20420;-42
2023/09/25 04:45:52;;;;;;;3.10;2.80;;;12.90;12.30;;;;;;6187412;23;20389;-42
2023/09/25 04:48:20;;;;;;;3.40;2.60;;;12.90;12.10;;;;;;6213488;23;20410;-42
2023/09/25 04:50:46;;;;;;;6.33;3.50;;;12.80;9.60;;;;;;6212384;23;20428;-42
2023/09/25 04:53:12;;;;;;;3.00;2.40;;;12.80;11.50;;;;;;6212205;23;20860;-43
2023/09/25 04:55:39;;;;;;;2.97;2.67;;;12.80;15.30;;;;;;6210877;23;20150;-43
2023/09/25 04:58:05;;;;;;;3.70;2.57;;;12.80;18.00;;;;;;6210342;23;20376;-42
2023/09/25 05:00:32;;;;;;;7.00;3.23;;;12.80;20.20;;;;;;6208975;23;20361;-42
2023/09/25 05:02:58;;;;;;;6.77;3.00;;;12.80;21.00;;;;;;6212491;23;20138;-43
2023/09/25 05:05:24;;;;;;;3.50;2.70;;;12.80;16.30;;;;;;6210227;23;20832;-42
2023/09/25 05:07:51;;;;;;;7.47;3.20;;;12.80;14.10;;;;;;6209423;23;20389;-42
2023/09/25 05:10:21;;;;;;;2.80;2.50;;;12.70;8.10;;;;;;6210145;23;20424;-42
2023/09/25 05:12:47;;;;;;;4.20;2.80;;;12.70;5.50;;;;;;6209908;23;20412;-42
2023/09/25 05:15:15;;;;;;;4.53;3.53;;;12.70;2.00;;;;;;6207964;23;20365;-43
2023/09/25 05:17:41;;;;;;;4.80;3.30;;;12.70;1.50;;;;;;6209020;23;20157;-43
2023/09/25 05:20:16;;;;;;;3.27;2.97;;;12.60;1.00;;;;;;6211688;23;20412;-42
2023/09/25 05:22:45;;;;;;;3.90;3.10;;;12.60;1.00;;;;;;6212574;23;20884;-44
2023/09/25 05:25:12;;;;;;;3.90;3.23;;;12.60;2.10;;;;;;6212043;23;20389;-44
2023/09/25 05:27:39;;;;;;;9.40;3.40;;;12.60;4.30;;;;;;6184753;23;20642;-44
2023/09/25 05:30:09;;;;;;;4.47;2.93;;;12.60;6.40;;;;;;6209787;23;20412;-43
2023/09/25 05:32:36;;;;;;;4.30;2.90;;;12.70;8.10;;;;;;6184214;23;20389;-44
2023/09/25 05:35:02;;;;;;;3.50;3.13;;;12.70;3.80;;;;;;6209839;23;20423;-43
2023/09/25 05:37:28;;;;;;;6.00;3.40;;;12.70;5.40;;;;;;6211332;23;20381;-44
2023/09/25 05:39:54;;;;;;;5.30;2.83;;;12.70;8.60;;;;;;6212459;23;20385;-43
2023/09/25 05:42:19;;;;;;;4.47;3.67;;;12.70;8.30;;;;;;6211142;23;20425;-43
2023/09/25 05:44:45;;;;;;;4.00;2.73;;;12.70;8.30;;;;;;6211047;23;20483;-44
2023/09/25 05:47:11;;;;;;;3.17;2.77;;;12.70;5.50;;;;;;6209583;23;20438;-44
2023/09/25 05:49:37;;;;;;;5.20;3.13;;;12.80;8.60;;;;;;6211367;23;20150;-43
2023/09/25 05:52:03;;;;;;;4.57;2.83;;;12.80;21.00;;;;;;6186292;23;20400;-43
2023/09/25 05:54:30;;;;;;;10.90;3.10;;;12.90;22.30;;;;;;6185651;23;20596;-44
2023/09/25 05:56:55;;;;;;;6.23;3.07;;;13.00;14.20;;;;;;6210274;23;20605;-44
2023/09/25 05:59:21;;;;;;;4.03;2.70;;;13.20;24.60;;;;;;6186295;23;20392;-43
2023/09/25 06:01:47;;;;;;;5.30;2.63;;;13.50;99.90;;;;;;6214146;23;20154;-44
2023/09/25 06:04:13;;;;;;;3.23;2.67;;;13.80;99.90;;;;;;6214366;23;20189;-42
2023/09/25 06:06:40;;;;;;;4.60;2.87;;;14.20;76.10;;;;;;6213294;23;20344;-44
2023/09/25 06:09:08;;;;;;;5.93;3.37;;;14.70;28.40;;;;;;6188037;23;20150;-44
2023/09/25 06:11:38;;;;;;;5.23;2.90;;;15.20;1.00;;;;;;6214842;23;20435;-45
2023/09/25 06:14:04;;;;;;;4.30;2.67;;;15.70;1.00;;;;;;6213851;23;20747;-44
2023/09/25 06:16:30;;;;;;;3.70;2.87;;;16.10;1.00;;;;;;6213036;23;20398;-44
2023/09/25 06:18:56;;;;;;;3.13;2.83;;;16.60;1.00;;;;;;6184074;23;20420;-44
2023/09/25 06:21:21;;;;;;;4.10;3.03;;;16.90;1.00;;;;;;6212612;23;20141;-44
2023/09/25 06:23:48;;;;;;;3.40;2.80;;;17.30;1.00;;;;;;6209836;23;20153;-44
2023/09/25 06:26:14;;;;;;;3.67;3.03;;;17.50;1.00;;;;;;6211990;23;20581;-44
2023/09/25 06:28:41;;;;;;;3.13;2.83;;;17.80;1.00;;;;;;6210901;23;20631;-44
2023/09/25 06:31:07;;;;;;;4.83;2.80;;;17.90;1.00;;;;;;6213394;23;20555;-44
2023/09/25 06:33:34;;;;;;;3.13;2.50;;;18.10;1.00;;;;;;6214419;23;20424;-44
2023/09/25 06:35:59;;;;;;;5.20;3.40;;;18.10;1.00;;;;;;6186994;23;20638;-44
2023/09/25 06:38:25;;;;;;;3.87;3.13;;;18.30;1.00;;;;;;6211016;23;20412;-44
2023/09/25 06:40:51;;;;;;;4.07;2.67;;;18.40;1.00;;;;;;6211362;23;20169;-44
2023/09/25 06:43:17;;;;;;;2.90;2.60;;;18.50;1.00;;;;;;6211645;23;20576;-45
2023/09/25 06:45:43;;;;;;;4.97;2.80;;;18.60;1.00;;;;;;6186009;23;20813;-44
2023/09/25 06:48:09;;;;;;;3.73;2.70;;;18.70;1.00;;;;;;6213001;23;20395;-45
2023/09/25 06:50:35;;;;;;;8.40;3.00;;;18.80;1.00;;;;;;6213723;23;20272;-46
2023/09/25 06:53:02;;;;;;;6.50;2.43;;;18.90;1.00;;;;;;6214622;23;20154;-49
2023/09/25 06:55:28;;;;;;;8.83;3.03;;;19.10;1.00;;;;;;6212753;23;20752;-46
2023/09/25 06:57:54;;;;;;;9.43;3.13;;;19.30;1.00;;;;;;6211705;23;20396;-49
2023/09/25 07:00:19;;;;;;;3.23;2.40;;;19.40;1.00;;;;;;6211875;23;20621;-46
2023/09/25 07:02:46;;;;;;;4.93;2.70;;;19.50;1.00;;;;;;6210482;23;20177;-46
2023/09/25 07:05:13;;;;;;;4.57;2.90;;;19.70;1.00;;;;;;6206959;23;20581;-46
2023/09/25 07:07:39;;;;;;;3.20;2.77;;;19.80;1.00;;;;;;6207509;23;20392;-46
2023/09/25 07:10:06;;;;;;;3.97;2.80;;;20.00;1.00;;;;;;6209296;23;20424;-46
2023/09/25 07:12:33;;;;;;;5.50;2.73;;;20.10;1.00;;;;;;6210517;23;20210;-47
2023/09/25 07:15:01;;;;;;;4.10;3.20;;;20.20;1.00;;;;;;6212804;23;20432;-46
2023/09/25 07:17:28;;;;;;;4.37;3.03;;;20.30;1.00;;;;;;6213081;23;20479;-47
2023/09/25 07:19:55;;;;;;;3.93;2.57;;;20.50;1.00;;;;;;6213894;23;20388;-47
2023/09/25 07:22:22;;;;;;;7.70;3.70;;;20.60;1.00;;;;;;6212356;23;20555;-47
2023/09/25 07:24:48;;;;;;;6.23;3.07;;;20.70;1.00;;;;;;6211434;23;20377;-47
2023/09/25 07:27:14;;;;;;;6.63;2.83;;;20.80;1.00;;;;;;6211493;23;20349;-47
2023/09/25 07:29:44;;;;;;;20.93;3.70;;;20.90;1.00;;;;;;6212427;23;20381;-47
2023/09/25 09:09:26;;;;;;;7.30;3.40;;;30.10;1.00;;;;;;6169137;22;1887138;-40
2023/09/25 09:11:52;;;;;;;11.63;3.33;;;30.10;1.00;;;;;;6253035;22;20171;-41
2023/09/25 09:14:41;;;;;;;10.13;3.63;;;30.10;1.00;;;;;;6253087;23;20135;-42
2023/09/25 09:17:09;;;;;;;4.73;2.43;;;30.00;1.00;;;;;;6237896;22;20383;-41
2023/09/25 09:19:43;;;;;;;10.40;3.70;;;30.10;1.00;;;;;;6253806;22;20376;-42
2023/09/25 09:22:09;;;;;;;4.20;3.80;;;30.00;1.00;;;;;;6253764;23;20374;-39
2023/09/25 09:24:38;;;;;;;6.53;3.37;;;30.10;1.00;;;;;;6253834;22;20526;-42
2023/09/25 09:27:07;;;;;;;15.03;5.03;;;30.10;1.00;;;;;;6252809;22;20386;-41
2023/09/25 09:29:43;;;;;;;7.77;3.87;;;30.30;1.00;;;;;;6253396;22;20415;-42
2023/09/25 09:32:09;;;;;;;11.00;3.50;;;30.50;1.00;;;;;;6253667;22;20928;-41
2023/09/25 09:34:36;;;;;;;12.37;3.40;;;30.50;1.00;;;;;;6252691;23;20437;-41
2023/09/25 09:37:02;;;;;;;11.93;3.73;;;30.60;1.00;;;;;;6253424;22;20390;-41
2023/09/25 09:39:34;;;;;;;8.07;3.40;;;30.80;1.00;;;;;;6252034;23;20384;-40
2023/09/25 09:42:05;;;;;;;12.80;3.37;;;31.00;1.00;;;;;;6251372;22;20155;-42
2023/09/25 09:44:31;;;;;;;9.37;3.10;;;31.20;1.00;;;;;;6251611;22;20432;-41
2023/09/25 09:46:57;;;;;;;10.40;4.10;;;31.50;1.00;;;;;;6246616;22;20348;-43
2023/09/25 09:49:25;;;;;;;10.73;3.87;;;31.70;1.00;;;;;;6245810;23;20395;-42
2023/09/25 09:51:51;;;;;;;7.60;3.17;;;32.00;1.00;;;;;;6247135;22;20387;-40
2023/09/25 09:54:18;;;;;;;4.60;2.40;;;32.10;1.00;;;;;;6248488;22;20366;-41
2023/09/25 09:56:47;;;;;;;7.73;2.77;;;32.10;1.00;;;;;;6246033;22;20399;-43
2023/09/25 09:59:14;;;;;;;6.67;3.77;;;32.20;1.00;;;;;;6247143;22;20363;-41
2023/09/25 10:01:42;;;;;;;8.00;3.80;;;32.30;1.00;;;;;;6247579;22;20339;-40
2023/09/25 10:04:07;;;;;;;4.43;2.93;;;32.60;1.00;;;;;;6245233;23;21001;-40
2023/09/25 10:06:46;;;;;;;10.27;3.40;;;33.00;1.00;;;;;;6245402;23;20359;-39
2023/09/25 10:09:13;;;;;;;6.73;3.57;;;33.10;1.00;;;;;;6246964;22;20537;-41
2023/09/25 10:11:42;;;;;;;13.23;3.80;;;33.20;1.00;;;;;;6245136;23;20404;-40
2023/09/25 10:14:08;;;;;;;6.13;3.10;;;33.50;1.00;;;;;;6247746;22;20367;-41
2023/09/25 10:16:53;;;;;;;11.77;3.87;;;33.30;1.00;;;;;;6247199;22;20800;-41
2023/09/25 10:19:22;;;;;;;9.83;3.50;;;33.50;1.00;;;;;;6248462;22;20351;-44
2023/09/25 10:22:13;;;;;;;10.90;3.83;;;33.60;1.00;;;;;;6247538;23;20358;-42
2023/09/25 10:24:41;;;;;;;7.50;3.53;;;34.10;1.00;;;;;;6247152;22;20409;-40
2023/09/25 10:27:09;;;;;;;4.33;2.60;;;34.40;1.00;;;;;;6246550;22;20354;-42
2023/09/25 10:29:36;;;;;;;11.63;2.87;;;34.70;1.00;;;;;;6246345;22;20370;-41
2023/09/25 10:32:03;;;;;;;6.77;3.00;;;35.10;1.00;;;;;;6247211;23;20359;-40
2023/09/25 10:34:31;;;;;;;6.10;3.07;;;35.20;1.00;;;;;;6246235;22;20367;-41
2023/09/25 10:36:59;;;;;;;5.07;3.27;;;35.30;1.00;;;;;;6248035;22;20487;-42
2023/09/25 10:39:27;;;;;;;13.03;4.37;;;35.60;1.00;;;;;;6247388;22;20384;-43
2023/09/25 10:42:08;;;;;;;6.10;2.70;;;35.90;1.00;;;;;;6245750;22;20697;-42
2023/09/25 10:44:36;;;;;;;6.87;2.93;;;36.10;1.00;;;;;;6246624;22;20406;-41
2023/09/25 10:47:09;;;;;;;3.63;2.57;;;35.90;1.00;;;;;;6246034;22;20391;-41
2023/09/25 10:49:36;;;;;;;4.63;3.00;;;36.00;1.00;;;;;;6245556;22;20331;-43
2023/09/25 10:52:03;;;;;;;3.83;2.43;;;36.00;1.00;;;;;;6245095;23;20808;-42
2023/09/25 10:54:29;;;;;;;5.37;3.30;;;36.30;1.00;;;;;;6246039;22;20392;-42
2023/09/25 10:56:55;;;;;;;4.20;2.93;;;36.40;1.00;;;;;;6245478;22;20726;-43
2023/09/25 10:59:20;;;;;;;3.90;2.73;;;36.70;1.00;;;;;;6245931;23;20361;-43
2023/09/25 11:01:48;;;;;;;4.77;2.90;;;37.10;1.00;;;;;;6244428;23;20558;-42
2023/09/25 11:04:14;;;;;;;3.10;2.40;;;37.40;1.00;;;;;;6244191;23;20212;-42
2023/09/25 11:06:40;;;;;;;3.70;2.60;;;37.20;1.00;;;;;;6244355;23;20925;-42
2023/09/25 11:09:08;;;;;;;7.50;2.33;;;37.30;1.00;;;;;;6244797;23;20196;-42
2023/09/25 11:11:34;;;;;;;4.30;2.60;;;37.60;1.00;;;;;;6245391;23;20184;-42
2023/09/25 11:13:59;;;;;;;3.40;2.50;;;37.70;1.00;;;;;;6244377;23;20360;-43
2023/09/25 11:16:25;;;;;;;3.10;2.37;;;38.00;1.00;;;;;;6247511;23;20164;-42
2023/09/25 11:19:05;;;;;;;4.40;2.50;;;38.10;1.00;;;;;;6244664;23;20153;-42
2023/09/25 11:21:31;;;;;;;4.07;2.70;;;37.90;1.00;;;;;;6244316;22;20384;-42
2023/09/25 11:23:57;;;;;;;3.13;2.57;;;37.90;1.00;;;;;;6243668;23;20419;-41
2023/09/25 11:26:25;;;;;;;3.17;2.87;;;38.00;1.00;;;;;;6243118;23;20141;-41
2023/09/25 11:28:54;;;;;;;6.70;2.40;;;38.00;1.00;;;;;;6241924;22;20136;-40
2023/09/25 11:31:19;;;;;;;3.50;3.10;;;38.20;1.00;;;;;;6243177;22;20383;-44
2023/09/25 11:33:45;;;;;;;3.20;2.80;;;38.40;1.00;;;;;;6241515;23;20637;-41
2023/09/25 11:36:11;;;;;;;4.47;2.50;;;38.30;1.00;;;;;;6240834;23;20204;-44
2023/09/25 11:38:36;;;;;;;4.50;2.80;;;38.10;1.00;;;;;;6241921;23;20668;-42
2023/09/25 11:41:05;;;;;;;3.30;2.80;;;38.10;1.00;;;;;;6243522;23;20509;-41
2023/09/25 11:43:31;;;;;;;3.70;2.50;;;38.20;1.00;;;;;;6244714;22;20163;-40
2023/09/25 11:45:56;;;;;;;6.57;3.50;;;38.20;1.00;;;;;;6244180;22;20387;-44
2023/09/25 11:48:22;;;;;;;7.10;2.93;;;38.50;1.00;;;;;;6245495;23;20594;-42
2023/09/25 11:50:48;;;;;;;7.53;3.23;;;38.90;1.00;;;;;;6244210;22;20149;-45
2023/09/25 11:53:14;;;;;;;5.60;2.80;;;38.80;1.00;;;;;;6243439;22;20409;-41
2023/09/25 11:55:43;;;;;;;3.90;2.80;;;38.80;1.00;;;;;;6243266;23;20451;-42
2023/09/25 11:58:10;;;;;;;2.30;2.07;;;38.50;1.00;;;;;;6245817;22;20161;-41
2023/09/25 12:00:35;;;;;;;3.93;2.67;;;38.30;1.00;;;;;;6246194;23;20392;-40
2023/09/25 12:03:03;;;;;;;5.83;2.50;;;38.10;1.00;;;;;;6243917;22;20440;-42
2023/09/25 12:05:29;;;;;;;2.77;2.57;;;37.90;1.00;;;;;;6243722;22;20165;-43
2023/09/25 12:07:55;;;;;;;3.70;2.90;;;37.60;1.00;;;;;;6243398;22;20352;-42
2023/09/25 12:10:21;;;;;;;3.57;2.60;;;37.30;1.00;;;;;;6244572;22;20458;-43
2023/09/25 12:12:47;;;;;;;2.93;2.53;;;37.20;1.00;;;;;;6245801;23;20396;-41
2023/09/25 12:15:13;;;;;;;3.10;2.53;;;37.20;1.00;;;;;;6244969;22;20181;-40
2023/09/25 12:17:40;;;;;;;3.03;2.70;;;37.60;1.00;;;;;;6243715;22;20200;-41
2023/09/25 12:20:11;;;;;;;6.17;2.83;;;37.90;1.00;;;;;;6242557;22;20650;-40
2023/09/25 12:22:39;;;;;;;4.30;3.20;;;38.20;1.00;;;;;;6240279;22;20335;-40
2023/09/25 12:25:07;;;;;;;3.70;2.73;;;38.50;1.00;;;;;;6244270;22;20388;-42
2023/09/25 12:27:32;;;;;;;3.87;3.43;;;38.40;1.00;;;;;;6243525;22;20392;-41
2023/09/25 12:29:59;;;;;;;9.47;3.10;;;38.30;1.00;;;;;;6239838;23;20431;-42
2023/09/25 12:32:24;;;;;;;29.60;5.50;;;37.90;1.00;;;;;;6242228;23;20405;-41
2023/09/25 12:34:50;;;;;;;66.67;8.80;;;37.70;1.00;;;;;;6243149;23;20497;-40
2023/09/25 12:37:16;;;;;;;32.87;8.13;;;37.90;1.00;;;;;;6242716;22;20668;-40
2023/09/25 12:39:41;;;;;;;24.77;6.33;;;37.90;1.00;;;;;;6245874;23;20150;-44
2023/09/25 12:42:07;;;;;;;11.47;3.90;;;38.00;1.00;;;;;;6245111;23;20438;-43
2023/09/25 12:44:32;;;;;;;14.30;4.90;;;38.10;1.00;;;;;;6244906;23;20177;-40
2023/09/25 12:46:58;;;;;;;22.07;5.50;;;38.10;1.00;;;;;;6245546;23;20545;-43
2023/09/25 12:49:24;;;;;;;13.20;5.63;;;38.30;1.00;;;;;;6243119;23;20188;-41
2023/09/25 12:51:50;;;;;;;8.23;3.60;;;38.50;1.00;;;;;;6245090;23;20157;-41
2023/09/25 12:54:16;;;;;;;6.93;3.03;;;38.70;1.00;;;;;;6244896;22;20456;-42
2023/09/25 12:56:43;;;;;;;44.80;9.80;;;38.90;1.00;;;;;;6243317;23;20384;-41
2023/09/25 12:59:08;;;;;;;44.90;8.40;;;38.80;1.00;;;;;;6244763;23;20470;-41
2023/09/25 13:01:35;;;;;;;36.83;9.20;;;38.70;1.00;;;;;;6241429;23;20356;-40
2023/09/25 13:04:02;;;;;;;14.03;4.27;;;38.60;1.00;;;;;;6241426;23;20162;-42
2023/09/25 13:06:27;;;;;;;6.97;4.10;;;38.70;1.00;;;;;;6244444;22;20392;-40
2023/09/25 13:08:53;;;;;;;4.47;2.90;;;38.50;1.00;;;;;;6243312;23;20434;-39
2023/09/25 13:11:19;;;;;;;10.33;3.70;;;38.30;1.00;;;;;;6245764;23;20587;-44
2023/09/25 13:13:44;;;;;;;12.20;3.87;;;38.20;1.00;;;;;;6245694;23;20206;-42
2023/09/25 13:16:10;;;;;;;16.33;4.43;;;38.10;1.00;;;;;;6244498;23;20154;-41
2023/09/25 13:18:35;;;;;;;8.80;3.67;;;38.30;1.00;;;;;;6243591;23;20149;-40
2023/09/25 13:21:01;;;;;;;7.30;3.70;;;38.50;1.00;;;;;;6245347;23;20213;-40
2023/09/25 13:23:26;;;;;;;7.33;3.40;;;38.60;1.00;;;;;;6243908;23;20140;-42
2023/09/25 13:25:52;;;;;;;11.97;4.30;;;38.60;1.00;;;;;;6245577;23;20129;-42
2023/09/25 13:28:18;;;;;;;8.83;3.50;;;38.70;1.00;;;;;;6245095;23;20150;-41
2023/09/25 13:30:43;;;;;;;6.30;3.67;;;38.80;1.00;;;;;;6242756;22;20163;-42
2023/09/25 13:33:09;;;;;;;5.60;3.13;;;38.80;1.00;;;;;;6245670;23;20442;-44
2023/09/25 13:35:35;;;;;;;3.57;2.50;;;38.90;1.00;;;;;;6243213;23;20220;-42
2023/09/25 13:38:01;;;;;;;4.60;2.93;;;38.80;1.00;;;;;;6241883;23;20532;-40
2023/09/25 13:40:28;;;;;;;3.77;2.83;;;38.40;1.00;;;;;;6241605;22;20436;-43
2023/09/25 13:42:54;;;;;;;3.40;2.70;;;38.40;1.00;;;;;;6242586;22;20355;-41
2023/09/25 13:45:21;;;;;;;2.93;2.47;;;38.20;1.00;;;;;;6240543;23;20403;-42
2023/09/25 13:47:47;;;;;;;3.97;2.93;;;38.20;1.00;;;;;;6242105;22;20153;-41
2023/09/25 13:50:16;;;;;;;4.30;2.80;;;38.00;1.00;;;;;;6244424;23;20403;-42
2023/09/25 13:52:41;;;;;;;5.30;2.63;;;37.70;1.00;;;;;;6244506;22;20130;-40
2023/09/25 13:55:10;;;;;;;18.43;4.70;;;37.50;1.00;;;;;;6245353;22;20470;-43
2023/09/25 13:57:37;;;;;;;8.00;2.90;;;37.50;1.00;;;;;;6246352;22;20455;-40
2023/09/25 14:00:07;;;;;;;3.30;2.73;;;37.70;1.00;;;;;;6244600;22;20471;-43
2023/09/25 14:02:33;;;;;;;3.73;2.60;;;37.70;1.00;;;;;;6244046;22;20387;-42
2023/09/25 14:04:59;;;;;;;4.60;2.57;;;37.60;1.00;;;;;;6244877;22;20339;-41
2023/09/25 14:07:24;;;;;;;2.97;2.50;;;37.40;1.00;;;;;;6247145;23;20181;-42
2023/09/25 14:09:50;;;;;;;3.40;2.53;;;37.20;1.00;;;;;;6246141;23;20188;-40
2023/09/25 14:12:16;;;;;;;3.43;2.27;;;37.20;1.00;;;;;;6243165;22;20193;-41
2023/09/25 14:14:47;;;;;;;2.83;2.47;;;37.20;1.00;;;;;;6243545;23;20214;-43
2023/09/25 14:17:13;;;;;;;3.30;2.57;;;37.20;1.00;;;;;;6243981;22;20251;-42
2023/09/25 14:19:39;;;;;;;3.33;2.60;;;37.30;1.00;;;;;;6244755;22;20356;-41
2023/09/25 14:22:04;;;;;;;3.13;2.43;;;37.40;1.00;;;;;;6245262;23;20383;-40
2023/09/25 14:24:30;;;;;;;4.03;2.70;;;37.40;1.00;;;;;;6242437;23;20160;-43
2023/09/25 14:27:02;;;;;;;2.83;1.90;;;37.40;1.00;;;;;;6242951;23;20157;-43
2023/09/25 14:29:29;;;;;;;4.83;2.67;;;37.50;1.00;;;;;;6243063;22;20150;-44